Time;durP1;ratioP1;P1;durP2;ratioP2;P2;SDS_P1;SDS_P2;PMS_P1;PMS_P2;Temp;Humidity;BMP_temperature;BMP_pressure;BME280_temperature;BME280_humidity;BME280_pressure;Samples;Min_cycle;Max_cycle;Signal;HPM_P1;HPM_P2
2022/03/05 00:02:08;;;;;;;24.25;13.10;;;;;;;;;;5088340;28;20124;-63
2022/03/05 00:04:34;;;;;;;15.32;9.73;;;;;;;;;;5091200;28;20064;-62
2022/03/05 00:07:00;;;;;;;15.65;9.13;;;;;;;;;;5092687;28;20116;-62
2022/03/05 00:09:26;;;;;;;14.02;8.68;;;;;;;;;;5092050;28;20455;-62
2022/03/05 00:11:52;;;;;;;13.60;9.35;;;;;;;;;;5092687;28;20047;-62
2022/03/05 00:14:18;;;;;;;15.02;9.40;;;;;;;;;;5092364;28;20473;-63
2022/03/05 00:16:44;;;;;;;15.80;9.77;;;;;;;;;;5093105;28;20044;-63
2022/03/05 00:19:10;;;;;;;18.30;9.68;;;;;;;;;;5093049;28;20050;-63
2022/03/05 00:21:37;;;;;;;17.80;9.18;;;;;;;;;;5093109;28;20478;-63
2022/03/05 00:24:03;;;;;;;15.52;9.60;;;;;;;;;;5091604;28;20034;-62
2022/03/05 00:26:29;;;;;;;15.27;9.30;;;;;;;;;;5091643;28;20048;-62
2022/03/05 00:28:55;;;;;;;13.20;8.70;;;;;;;;;;5093510;28;20089;-63
2022/03/05 00:31:21;;;;;;;18.30;8.98;;;;;;;;;;5092244;28;20055;-63
2022/03/05 00:33:47;;;;;;;14.55;9.13;;;;;;;;;;5093359;28;20052;-62
2022/03/05 00:36:13;;;;;;;15.68;9.30;;;;;;;;;;5092815;28;20040;-63
2022/03/05 00:38:39;;;;;;;17.27;9.27;;;;;;;;;;5092670;28;20032;-63
2022/03/05 00:41:05;;;;;;;14.38;8.90;;;;;;;;;;5092905;28;20382;-63
2022/03/05 00:43:31;;;;;;;16.63;9.23;;;;;;;;;;5092894;28;20044;-63
2022/03/05 00:45:57;;;;;;;15.43;8.98;;;;;;;;;;5092746;28;20032;-62
2022/03/05 00:48:23;;;;;;;15.82;8.60;;;;;;;;;;5093058;28;20111;-63
2022/03/05 00:50:49;;;;;;;15.13;8.63;;;;;;;;;;5092120;28;20072;-62
2022/03/05 00:53:17;;;;;;;17.13;8.68;;;;;;;;;;5092678;28;20478;-63
2022/03/05 00:55:43;;;;;;;14.20;8.02;;;;;;;;;;5090936;28;20051;-63
2022/03/05 00:58:09;;;;;;;15.27;8.50;;;;;;;;;;5092426;28;20040;-62
2022/03/05 01:00:35;;;;;;;14.98;8.65;;;;;;;;;;5092390;28;20028;-63
2022/03/05 01:03:02;;;;;;;15.52;9.02;;;;;;;;;;5092993;28;20028;-63
2022/03/05 01:05:28;;;;;;;16.27;8.48;;;;;;;;;;5090916;28;20040;-63
2022/03/05 01:07:54;;;;;;;14.82;8.77;;;;;;;;;;5090962;28;20046;-62
2022/03/05 01:10:20;;;;;;;14.70;8.32;;;;;;;;;;5091829;28;20393;-62
2022/03/05 01:12:46;;;;;;;15.68;8.55;;;;;;;;;;5092308;28;20069;-63
2022/03/05 01:15:12;;;;;;;15.60;9.00;;;;;;;;;;5091289;28;20036;-63
2022/03/05 01:17:38;;;;;;;15.77;9.27;;;;;;;;;;5092145;28;20051;-64
2022/03/05 01:20:05;;;;;;;17.08;8.57;;;;;;;;;;5092084;28;20509;-63
2022/03/05 01:22:31;;;;;;;14.13;8.68;;;;;;;;;;5091814;28;20040;-62
2022/03/05 01:24:57;;;;;;;13.55;8.00;;;;;;;;;;5091152;28;20031;-62
2022/03/05 01:27:23;;;;;;;14.73;8.55;;;;;;;;;;5091674;28;20375;-63
2022/03/05 01:29:49;;;;;;;13.35;8.07;;;;;;;;;;5091788;28;20075;-62
2022/03/05 01:32:15;;;;;;;14.43;8.35;;;;;;;;;;5091839;28;20394;-62
2022/03/05 01:34:41;;;;;;;13.50;8.48;;;;;;;;;;5091682;28;20039;-63
2022/03/05 01:37:07;;;;;;;16.65;8.35;;;;;;;;;;5091289;28;20044;-63
2022/03/05 01:39:33;;;;;;;14.85;7.95;;;;;;;;;;5091971;28;20035;-63
2022/03/05 01:42:01;;;;;;;15.90;8.02;;;;;;;;;;5091372;28;20502;-62
2022/03/05 01:44:27;;;;;;;16.08;8.23;;;;;;;;;;5091659;28;20040;-62
2022/03/05 01:46:53;;;;;;;12.32;8.00;;;;;;;;;;5091676;28;20036;-63
2022/03/05 01:49:20;;;;;;;15.10;8.90;;;;;;;;;;5091544;28;20040;-63
2022/03/05 01:51:46;;;;;;;13.95;8.02;;;;;;;;;;5091337;28;20499;-62
2022/03/05 01:54:12;;;;;;;14.65;8.18;;;;;;;;;;5090862;28;20089;-62
2022/03/05 01:56:39;;;;;;;15.77;8.10;;;;;;;;;;5091725;28;20441;-63
2022/03/05 01:59:06;;;;;;;13.27;7.65;;;;;;;;;;5091327;28;20130;-63
2022/03/05 02:01:32;;;;;;;15.77;8.20;;;;;;;;;;5090724;28;20544;-62
2022/03/05 02:03:59;;;;;;;12.43;7.20;;;;;;;;;;5091374;28;20044;-62
2022/03/05 02:06:25;;;;;;;16.65;8.10;;;;;;;;;;5091418;28;20036;-63
2022/03/05 02:08:52;;;;;;;14.18;8.07;;;;;;;;;;5090884;28;20133;-63
2022/03/05 02:11:18;;;;;;;18.05;8.95;;;;;;;;;;5091047;28;20434;-62
2022/03/05 02:13:44;;;;;;;15.25;7.82;;;;;;;;;;5090905;28;20048;-62
2022/03/05 02:16:10;;;;;;;14.85;7.70;;;;;;;;;;5089236;28;20073;-63
2022/03/05 02:18:36;;;;;;;13.35;7.32;;;;;;;;;;5091049;28;20055;-63
2022/03/05 02:21:02;;;;;;;12.90;8.13;;;;;;;;;;5090373;28;20040;-62
2022/03/05 02:23:28;;;;;;;15.80;8.50;;;;;;;;;;5090529;28;20052;-62
2022/03/05 02:25:55;;;;;;;16.42;8.30;;;;;;;;;;5090952;28;20032;-63
2022/03/05 02:28:22;;;;;;;14.52;7.75;;;;;;;;;;5090104;28;20044;-62
2022/03/05 02:30:48;;;;;;;15.18;7.97;;;;;;;;;;5090751;28;20035;-62
2022/03/05 02:33:15;;;;;;;12.82;7.65;;;;;;;;;;5090030;28;20032;-63
2022/03/05 02:35:43;;;;;;;12.50;7.30;;;;;;;;;;5089921;28;20493;-63
2022/03/05 02:38:09;;;;;;;13.45;8.20;;;;;;;;;;5091027;28;20078;-63
2022/03/05 02:40:35;;;;;;;13.85;8.15;;;;;;;;;;5090319;28;20051;-63
2022/03/05 02:43:01;;;;;;;15.30;8.25;;;;;;;;;;5090696;28;20047;-62
2022/03/05 02:45:27;;;;;;;14.93;8.18;;;;;;;;;;5090049;28;20078;-62
2022/03/05 02:47:53;;;;;;;12.73;8.07;;;;;;;;;;5090871;28;20066;-63
2022/03/05 02:50:19;;;;;;;13.77;7.25;;;;;;;;;;5088672;28;20131;-63
2022/03/05 02:52:45;;;;;;;11.77;7.25;;;;;;;;;;5090696;28;20075;-63
2022/03/05 02:55:11;;;;;;;12.93;7.28;;;;;;;;;;5090251;28;20097;-62
2022/03/05 02:57:37;;;;;;;14.75;7.80;;;;;;;;;;5090549;28;20040;-63
2022/03/05 03:00:04;;;;;;;13.43;7.88;;;;;;;;;;5089297;28;20559;-63
2022/03/05 03:02:30;;;;;;;12.88;7.40;;;;;;;;;;5090198;28;20453;-62
2022/03/05 03:04:56;;;;;;;12.43;7.40;;;;;;;;;;5090024;28;20402;-63
2022/03/05 03:07:22;;;;;;;16.45;8.02;;;;;;;;;;5090087;28;20097;-62
2022/03/05 03:09:48;;;;;;;13.50;7.68;;;;;;;;;;5088930;28;20038;-63
2022/03/05 03:12:14;;;;;;;12.55;7.57;;;;;;;;;;5090199;28;20044;-62
2022/03/05 03:14:40;;;;;;;13.00;7.22;;;;;;;;;;5090268;28;20360;-63
2022/03/05 03:17:06;;;;;;;13.57;7.35;;;;;;;;;;5090032;28;20032;-62
2022/03/05 03:19:32;;;;;;;14.88;7.75;;;;;;;;;;5090121;28;20089;-62
2022/03/05 03:21:58;;;;;;;13.55;7.43;;;;;;;;;;5090017;28;20047;-63
2022/03/05 03:24:24;;;;;;;13.27;7.47;;;;;;;;;;5089808;28;20032;-62
2022/03/05 03:26:50;;;;;;;13.18;7.82;;;;;;;;;;5089481;28;20478;-63
2022/03/05 03:29:16;;;;;;;13.43;7.32;;;;;;;;;;5090478;28;20440;-63
2022/03/05 03:31:42;;;;;;;14.38;7.22;;;;;;;;;;5089505;28;20140;-62
2022/03/05 03:34:08;;;;;;;12.27;7.35;;;;;;;;;;5090350;28;20088;-63
2022/03/05 03:36:34;;;;;;;12.05;6.93;;;;;;;;;;5090030;28;20405;-62
2022/03/05 03:39:00;;;;;;;13.13;6.80;;;;;;;;;;5090325;28;20048;-62
2022/03/05 03:41:26;;;;;;;13.52;7.65;;;;;;;;;;5093738;28;20091;-63
2022/03/05 03:43:52;;;;;;;14.98;7.57;;;;;;;;;;5093470;28;20044;-62
2022/03/05 03:46:18;;;;;;;13.25;6.95;;;;;;;;;;5094024;28;20368;-63
2022/03/05 03:48:44;;;;;;;11.63;7.20;;;;;;;;;;5093760;28;20509;-62
2022/03/05 03:51:10;;;;;;;13.65;7.22;;;;;;;;;;5093842;28;20040;-63
2022/03/05 03:53:36;;;;;;;13.68;6.90;;;;;;;;;;5093824;28;20040;-62
2022/03/05 03:56:02;;;;;;;14.93;7.07;;;;;;;;;;5093640;28;20477;-62
2022/03/05 03:58:28;;;;;;;11.40;6.97;;;;;;;;;;5093097;28;20044;-63
2022/03/05 04:00:54;;;;;;;13.05;7.35;;;;;;;;;;5093089;28;20047;-62
2022/03/05 04:03:20;;;;;;;13.27;7.35;;;;;;;;;;5093022;28;20055;-62
2022/03/05 04:05:46;;;;;;;15.07;7.32;;;;;;;;;;5093224;28;20493;-62
2022/03/05 04:10:57;;;;;;;11.35;7.40;;;;;;;;;;5093251;28;20149;-63
2022/03/05 04:13:23;;;;;;;13.30;7.55;;;;;;;;;;5093762;28;20032;-62
2022/03/05 04:15:49;;;;;;;13.40;7.82;;;;;;;;;;5092915;28;20044;-64
2022/03/05 04:18:15;;;;;;;15.82;7.38;;;;;;;;;;5093544;28;20089;-63
2022/03/05 04:20:41;;;;;;;14.35;6.93;;;;;;;;;;5093451;28;20111;-62
2022/03/05 04:23:07;;;;;;;11.88;7.00;;;;;;;;;;5093366;28;20035;-63
2022/03/05 04:25:33;;;;;;;12.02;7.32;;;;;;;;;;5092989;28;20383;-63
2022/03/05 04:27:59;;;;;;;14.65;7.22;;;;;;;;;;5093268;28;20036;-64
2022/03/05 04:30:26;;;;;;;13.48;6.82;;;;;;;;;;5092641;28;20043;-63
2022/03/05 04:32:54;;;;;;;14.38;7.15;;;;;;;;;;5092753;28;20043;-63
2022/03/05 04:35:20;;;;;;;15.20;7.85;;;;;;;;;;5092532;28;20040;-63
2022/03/05 04:37:47;;;;;;;14.13;7.55;;;;;;;;;;5092746;28;20046;-63
2022/03/05 04:40:13;;;;;;;14.82;7.55;;;;;;;;;;5092600;28;20433;-63
2022/03/05 04:42:39;;;;;;;13.77;6.80;;;;;;;;;;5090479;28;20040;-63
2022/03/05 04:45:08;;;;;;;14.70;7.22;;;;;;;;;;5092200;28;20036;-63
2022/03/05 04:47:34;;;;;;;17.45;7.72;;;;;;;;;;5092473;28;20070;-63
2022/03/05 04:50:01;;;;;;;19.25;9.05;;;;;;;;;;5091625;28;20036;-62
2022/03/05 04:52:27;;;;;;;14.77;7.78;;;;;;;;;;5092111;28;20047;-63
2022/03/05 04:54:53;;;;;;;16.92;8.32;;;;;;;;;;5092314;28;20122;-63
2022/03/05 04:57:19;;;;;;;15.82;7.85;;;;;;;;;;5090352;28;20493;-63
2022/03/05 04:59:45;;;;;;;18.67;7.40;;;;;;;;;;5092019;28;20047;-63
2022/03/05 05:02:11;;;;;;;15.02;7.47;;;;;;;;;;5091997;28;20066;-63
2022/03/05 05:04:37;;;;;;;22.27;8.32;;;;;;;;;;5091492;28;20046;-63
2022/03/05 05:07:03;;;;;;;14.30;7.97;;;;;;;;;;5092331;28;20144;-63
2022/03/05 05:09:30;;;;;;;14.07;7.55;;;;;;;;;;5091669;28;20139;-63
2022/03/05 05:11:56;;;;;;;18.08;8.50;;;;;;;;;;5091246;28;20050;-63
2022/03/05 05:14:23;;;;;;;17.50;8.23;;;;;;;;;;5091974;28;20032;-63
2022/03/05 05:16:49;;;;;;;15.75;7.53;;;;;;;;;;5092740;28;20074;-65
2022/03/05 05:19:27;;;;;;;16.05;8.07;;;;;;;;;;5092676;28;20067;-63
2022/03/05 05:22:04;;;;;;;17.30;8.82;;;;;;;;;;5092110;28;20092;-63
2022/03/05 05:24:32;;;;;;;15.50;7.35;;;;;;;;;;5090581;28;20042;-63
2022/03/05 05:26:58;;;;;;;15.70;8.43;;;;;;;;;;5092308;28;20115;-63
2022/03/05 05:29:25;;;;;;;15.25;7.63;;;;;;;;;;5091555;28;20513;-64
2022/03/05 05:31:51;;;;;;;18.92;8.05;;;;;;;;;;5091730;28;20077;-63
2022/03/05 05:34:17;;;;;;;14.15;7.90;;;;;;;;;;5091585;28;20032;-63
2022/03/05 05:36:44;;;;;;;20.20;9.23;;;;;;;;;;5092416;28;20469;-63
2022/03/05 05:39:11;;;;;;;15.60;7.85;;;;;;;;;;5091756;28;20039;-63
2022/03/05 05:41:38;;;;;;;16.20;7.88;;;;;;;;;;5090653;28;20106;-63
2022/03/05 05:44:05;;;;;;;20.00;9.02;;;;;;;;;;5091739;28;20055;-63
2022/03/05 05:46:31;;;;;;;16.88;9.13;;;;;;;;;;5090968;28;20409;-63
2022/03/05 05:48:58;;;;;;;14.48;8.00;;;;;;;;;;5089679;28;20680;-64
2022/03/05 05:51:24;;;;;;;15.48;7.88;;;;;;;;;;5089939;28;20515;-63
2022/03/05 05:53:50;;;;;;;15.82;7.28;;;;;;;;;;5090955;28;20028;-63
2022/03/05 05:56:16;;;;;;;16.95;7.90;;;;;;;;;;5091660;28;20435;-63
2022/03/05 05:58:42;;;;;;;15.85;7.13;;;;;;;;;;5089822;28;20150;-63
2022/03/05 06:01:08;;;;;;;17.73;7.93;;;;;;;;;;5090924;28;20059;-63
2022/03/05 06:03:34;;;;;;;16.98;8.52;;;;;;;;;;5090159;28;20032;-64
2022/03/05 06:06:01;;;;;;;16.45;7.57;;;;;;;;;;5091011;28;20491;-64
2022/03/05 06:08:27;;;;;;;14.20;7.68;;;;;;;;;;5090887;28;20398;-63
2022/03/05 06:10:54;;;;;;;17.45;7.80;;;;;;;;;;5091049;28;20032;-63
2022/03/05 06:13:20;;;;;;;17.58;7.40;;;;;;;;;;5090346;28;20039;-63
2022/03/05 06:15:46;;;;;;;18.90;8.10;;;;;;;;;;5089516;28;20140;-63
2022/03/05 06:18:15;;;;;;;15.43;8.05;;;;;;;;;;5091070;28;20039;-63
2022/03/05 06:20:41;;;;;;;16.00;7.78;;;;;;;;;;5089409;28;20048;-62
2022/03/05 06:23:07;;;;;;;15.07;7.50;;;;;;;;;;5089867;28;20370;-63
2022/03/05 06:25:33;;;;;;;15.85;7.65;;;;;;;;;;5090440;28;20035;-62
2022/03/05 06:28:00;;;;;;;16.42;7.40;;;;;;;;;;5088730;28;20795;-63
2022/03/05 06:30:26;;;;;;;15.65;7.38;;;;;;;;;;5090804;28;20132;-63
2022/03/05 06:32:52;;;;;;;17.00;8.30;;;;;;;;;;5088980;28;20043;-62
2022/03/05 06:35:18;;;;;;;14.68;7.50;;;;;;;;;;5090584;28;20046;-63
2022/03/05 06:37:45;;;;;;;15.60;7.97;;;;;;;;;;5090518;28;20036;-63
2022/03/05 06:40:12;;;;;;;15.20;7.55;;;;;;;;;;5090755;28;20493;-62
2022/03/05 06:42:39;;;;;;;15.27;7.55;;;;;;;;;;5090110;28;20128;-63
2022/03/05 06:45:06;;;;;;;16.63;8.63;;;;;;;;;;5089989;28;20504;-63
2022/03/05 06:47:32;;;;;;;14.73;8.05;;;;;;;;;;5090120;28;20111;-63
2022/03/05 06:49:58;;;;;;;15.00;7.60;;;;;;;;;;5089010;28;20047;-62
2022/03/05 06:52:24;;;;;;;15.98;8.18;;;;;;;;;;5090104;28;20036;-63
2022/03/05 06:54:50;;;;;;;15.20;7.78;;;;;;;;;;5090262;28;20123;-63
2022/03/05 06:57:17;;;;;;;15.10;7.18;;;;;;;;;;5089692;28;20036;-63
2022/03/05 06:59:43;;;;;;;15.30;7.50;;;;;;;;;;5089887;28;20032;-63
2022/03/05 07:02:09;;;;;;;14.82;7.53;;;;;;;;;;5089581;28;20110;-63
2022/03/05 07:04:35;;;;;;;15.68;8.15;;;;;;;;;;5089272;28;20032;-63
2022/03/05 07:07:01;;;;;;;15.80;8.15;;;;;;;;;;5089944;28;20418;-63
2022/03/05 07:09:27;;;;;;;15.45;7.80;;;;;;;;;;5088303;28;20097;-63
2022/03/05 07:11:53;;;;;;;14.90;7.43;;;;;;;;;;5090403;28;20039;-63
2022/03/05 07:14:19;;;;;;;16.17;8.13;;;;;;;;;;5088993;28;20043;-63
2022/03/05 07:16:45;;;;;;;16.25;7.65;;;;;;;;;;5090437;28;20387;-63
2022/03/05 07:19:11;;;;;;;14.85;7.38;;;;;;;;;;5088984;28;20043;-62
2022/03/05 07:21:37;;;;;;;14.63;7.70;;;;;;;;;;5090463;28;20040;-63
2022/03/05 07:24:04;;;;;;;13.85;7.63;;;;;;;;;;5087852;28;20050;-62
2022/03/05 07:26:30;;;;;;;13.70;7.28;;;;;;;;;;5088688;28;20040;-63
2022/03/05 07:28:56;;;;;;;13.63;7.25;;;;;;;;;;5084032;28;20040;-63
2022/03/05 07:31:22;;;;;;;13.13;7.25;;;;;;;;;;5087674;28;20047;-63
2022/03/05 07:33:48;;;;;;;13.70;7.53;;;;;;;;;;5089111;28;20475;-63
2022/03/05 07:36:14;;;;;;;12.68;7.30;;;;;;;;;;5090024;28;20040;-63
2022/03/05 07:38:43;;;;;;;15.43;7.65;;;;;;;;;;5086454;28;20060;-63
2022/03/05 07:41:09;;;;;;;13.57;6.75;;;;;;;;;;5088919;28;20060;-63
2022/03/05 07:43:35;;;;;;;13.82;7.25;;;;;;;;;;5087648;28;20044;-63
2022/03/05 07:46:01;;;;;;;14.02;7.05;;;;;;;;;;5088873;28;20048;-63
2022/03/05 07:48:27;;;;;;;12.25;7.20;;;;;;;;;;5088399;28;20028;-63
2022/03/05 07:50:53;;;;;;;15.43;7.53;;;;;;;;;;5088129;28;20451;-63
2022/03/05 07:53:19;;;;;;;13.02;6.43;;;;;;;;;;5089534;28;20450;-63
2022/03/05 07:55:46;;;;;;;13.90;7.97;;;;;;;;;;5087845;28;20063;-63
2022/03/05 07:58:12;;;;;;;14.20;7.75;;;;;;;;;;5089056;28;20036;-63
2022/03/05 08:00:38;;;;;;;14.55;7.10;;;;;;;;;;5088056;28;20119;-63
2022/03/05 08:03:04;;;;;;;14.48;7.00;;;;;;;;;;5088656;28;20076;-63
2022/03/05 08:05:30;;;;;;;14.25;6.78;;;;;;;;;;5088074;28;20036;-63
2022/03/05 08:07:56;;;;;;;13.60;7.95;;;;;;;;;;5088777;28;20089;-63
2022/03/05 08:10:22;;;;;;;13.43;7.53;;;;;;;;;;5082700;28;20040;-62
2022/03/05 08:12:48;;;;;;;14.05;7.65;;;;;;;;;;5089464;28;20044;-63
2022/03/05 08:15:14;;;;;;;14.75;8.38;;;;;;;;;;5086598;28;20058;-63
2022/03/05 08:17:51;;;;;;;15.73;8.70;;;;;;;;;;5088213;28;20040;-63
2022/03/05 08:20:17;;;;;;;15.90;7.97;;;;;;;;;;5088925;28;20040;-63
2022/03/05 08:22:43;;;;;;;13.48;8.25;;;;;;;;;;5087842;28;20120;-63
2022/03/05 08:25:09;;;;;;;16.33;7.95;;;;;;;;;;5090437;28;20545;-63
2022/03/05 08:27:35;;;;;;;14.60;7.70;;;;;;;;;;5092674;28;20028;-63
2022/03/05 08:30:02;;;;;;;18.85;9.38;;;;;;;;;;5092545;28;20047;-63
2022/03/05 08:32:28;;;;;;;15.73;7.75;;;;;;;;;;5092481;28;20250;-62
2022/03/05 08:34:54;;;;;;;16.20;8.90;;;;;;;;;;5093463;28;20157;-63
2022/03/05 08:37:20;;;;;;;17.13;8.90;;;;;;;;;;5091778;28;20550;-62
2022/03/05 08:39:46;;;;;;;17.63;9.10;;;;;;;;;;5092573;28;20044;-63
2022/03/05 08:42:12;;;;;;;15.77;8.57;;;;;;;;;;5092843;28;20177;-63
2022/03/05 08:44:38;;;;;;;19.35;10.90;;;;;;;;;;5092433;28;20030;-63
2022/03/05 08:47:04;;;;;;;18.88;9.00;;;;;;;;;;5091063;28;20042;-63
2022/03/05 08:49:30;;;;;;;20.40;10.82;;;;;;;;;;5092367;28;20040;-64
2022/03/05 08:51:56;;;;;;;17.80;10.02;;;;;;;;;;5092716;28;20502;-63
2022/03/05 08:54:22;;;;;;;18.63;9.55;;;;;;;;;;5092661;28;20410;-63
2022/03/05 08:56:49;;;;;;;18.23;10.05;;;;;;;;;;5091824;28;20048;-63
2022/03/05 08:59:15;;;;;;;21.15;10.23;;;;;;;;;;5092821;28;20122;-64
2022/03/05 09:01:41;;;;;;;20.35;9.90;;;;;;;;;;5092844;28;20085;-63
2022/03/05 09:04:07;;;;;;;18.63;9.73;;;;;;;;;;5092980;28;20042;-63
2022/03/05 09:06:33;;;;;;;22.90;10.65;;;;;;;;;;5092855;28;20067;-63
2022/03/05 09:09:02;;;;;;;21.52;10.65;;;;;;;;;;5092325;28;20035;-63
2022/03/05 09:11:28;;;;;;;19.38;9.77;;;;;;;;;;5092074;28;20115;-63
2022/03/05 09:13:54;;;;;;;19.98;10.15;;;;;;;;;;5091688;28;20093;-63
2022/03/05 09:16:21;;;;;;;17.83;10.20;;;;;;;;;;5090258;28;20051;-63
2022/03/05 09:18:47;;;;;;;16.80;8.68;;;;;;;;;;5091843;28;20494;-63
2022/03/05 09:21:13;;;;;;;18.05;9.38;;;;;;;;;;5092106;28;20036;-63
2022/03/05 09:23:40;;;;;;;22.20;10.80;;;;;;;;;;5091815;28;20031;-63
2022/03/05 09:26:06;;;;;;;19.80;10.63;;;;;;;;;;5073613;28;20040;-63
2022/03/05 09:28:32;;;;;;;20.85;10.90;;;;;;;;;;5090808;28;20506;-63
2022/03/05 09:31:01;;;;;;;20.35;11.63;;;;;;;;;;5090301;28;20040;-63
2022/03/05 09:33:27;;;;;;;21.45;11.02;;;;;;;;;;5091689;28;20028;-63
2022/03/05 09:35:54;;;;;;;22.88;10.52;;;;;;;;;;5091095;28;20410;-63
2022/03/05 09:38:20;;;;;;;21.48;11.55;;;;;;;;;;5090854;28;20036;-64
2022/03/05 09:40:46;;;;;;;25.77;11.85;;;;;;;;;;5091332;28;20131;-64
2022/03/05 09:43:12;;;;;;;23.60;11.40;;;;;;;;;;5091254;28;20040;-63
2022/03/05 09:45:38;;;;;;;22.77;12.13;;;;;;;;;;5091448;28;20040;-63
2022/03/05 09:48:04;;;;;;;21.73;11.40;;;;;;;;;;5091941;28;20075;-63
2022/03/05 09:50:33;;;;;;;19.65;10.93;;;;;;;;;;5091770;28;20119;-63
2022/03/05 09:53:00;;;;;;;21.30;11.20;;;;;;;;;;5091033;28;20513;-63
2022/03/05 09:55:27;;;;;;;21.48;11.05;;;;;;;;;;5091563;28;20036;-63
2022/03/05 09:57:53;;;;;;;23.42;12.43;;;;;;;;;;5091830;28;20062;-63
2022/03/05 10:00:19;;;;;;;21.65;11.40;;;;;;;;;;5090285;28;20048;-63
2022/03/05 10:02:48;;;;;;;20.55;11.23;;;;;;;;;;5091672;28;20119;-63
2022/03/05 10:05:17;;;;;;;23.52;11.98;;;;;;;;;;5091349;28;20371;-63
2022/03/05 10:08:07;;;;;;;22.08;11.20;;;;;;;;;;5091774;28;20128;-63
2022/03/05 10:10:39;;;;;;;21.08;11.85;;;;;;;;;;5090709;28;20044;-63
2022/03/05 10:13:05;;;;;;;;;;;;;;;;;;5091427;28;20521;-63
2022/03/05 10:15:31;;;;;;;24.33;12.32;;;;;;;;;;5091013;28;20015;-63
2022/03/05 10:17:59;;;;;;;22.27;12.57;;;;;;;;;;5090701;28;20040;-63
2022/03/05 10:20:29;;;;;;;25.02;13.13;;;;;;;;;;5090372;28;20075;-63
2022/03/05 10:22:59;;;;;;;22.30;11.60;;;7.80;99.90;;;;;;5091272;28;20040;-63
2022/03/05 10:25:45;;;;;;;23.90;13.00;;;;;;;;;;5090447;28;20043;-63
2022/03/05 10:28:11;;;;;;;24.48;12.57;;;;;;;;;;5090615;28;20161;-63
2022/03/05 10:30:42;;;;;;;22.45;12.65;;;8.20;99.90;;;;;;5089059;28;20119;-63
2022/03/05 10:33:23;;;;;;;24.42;12.68;;;;;;;;;;5090353;28;20044;-63
2022/03/05 10:35:49;;;;;;;23.73;12.30;;;;;;;;;;5090463;28;20051;-63
2022/03/05 10:38:15;;;;;;;24.63;12.82;;;;;;;;;;5090626;28;20040;-64
2022/03/05 10:40:41;;;;;;;23.50;12.65;;;;;;;;;;5090348;28;20768;-63
2022/03/05 10:43:08;;;;;;;24.42;12.73;;;9.50;99.90;;;;;;5090308;28;20394;-63
2022/03/05 10:45:49;;;;;;;23.27;12.88;;;;;;;;;;5088369;28;20551;-63
2022/03/05 10:48:30;;;;;;;28.58;12.75;;;9.70;99.90;;;;;;5089305;28;20039;-64
2022/03/05 10:50:56;;;;;;;24.15;13.38;;;;;;;;;;5090432;28;20057;-64
2022/03/05 10:53:35;;;;;;;25.40;12.73;;;9.80;99.90;;;;;;5088794;28;20036;-63
2022/03/05 10:56:20;;;;;;;24.63;13.25;;;;;;;;;;5090155;28;20040;-63
2022/03/05 10:58:56;;;;;;;21.90;12.80;;;;;;;;;;5090196;28;20091;-64
2022/03/05 11:01:22;;;;;;;22.10;12.23;;;;;;;;;;5090270;28;20028;-64
2022/03/05 11:03:49;;;;;;;22.88;12.27;;;;;;;;;;5088704;28;20097;-64
2022/03/05 11:06:15;;;;;;;23.40;12.57;;;;;;;;;;5089950;28;20042;-63
2022/03/05 11:08:41;;;;;;;22.77;12.45;;;;;;;;;;5089658;28;20494;-64
2022/03/05 11:11:07;;;;;;;22.50;12.65;;;;;;;;;;5090082;28;20094;-64
2022/03/05 11:13:34;;;;;;;20.98;12.85;;;;;;;;;;5090388;28;20042;-64
2022/03/05 11:16:01;;;;;;;24.98;13.93;;;;;;;;;;5090858;28;20036;-64
2022/03/05 11:18:28;;;;;;;21.90;12.93;;;;;;;;;;5090467;28;20417;-63
2022/03/05 11:20:54;;;;;;;23.30;13.80;;;;;;;;;;5088380;28;20064;-64
2022/03/05 11:23:20;;;;;;;23.42;13.20;;;;;;;;;;5090006;28;20036;-62
2022/03/05 11:25:47;;;;;;;24.13;13.35;;;;;;;;;;5090147;28;20054;-63
2022/03/05 11:28:19;;;;;;;23.48;12.40;;;12.20;99.90;;;;;;5088895;28;20040;-64
2022/03/05 11:30:45;;;;;;;20.40;12.07;;;12.70;99.90;;;;;;5090592;28;20044;-64
2022/03/05 11:33:11;;;;;;;23.15;13.18;;;;;;;;;;5090931;28;20044;-62
2022/03/05 11:35:43;;;;;;;22.92;13.35;;;;;;;;;;5090328;28;20127;-62
2022/03/05 11:38:32;;;;;;;23.73;12.52;;;12.90;99.90;;;;;;5090714;28;20044;-62
2022/03/05 11:40:58;;;;;;;22.20;13.30;;;;;;;;;;5090639;28;20066;-61
2022/03/05 11:43:25;;;;;;;23.55;13.70;;;12.80;99.90;;;;;;5090322;28;20491;-62
2022/03/05 11:45:59;;;;;;;22.75;13.60;;;;;;;;;;5090517;28;20044;-62
2022/03/05 11:48:27;;;;;;;24.25;13.27;;;13.00;99.90;;;;;;5090483;28;20122;-62
2022/03/05 11:50:58;;;;;;;21.50;12.98;;;13.10;99.90;;;;;;5090493;28;20135;-61
2022/03/05 11:53:24;;;;;;;23.65;13.85;;;;;;;;;;5090374;28;20050;-61
2022/03/05 11:55:50;;;;;;;22.27;13.05;;;;;;;;;;5090646;28;20093;-62
2022/03/05 11:58:18;;;;;;;23.63;13.45;;;13.50;99.90;;;;;;5090591;28;20113;-62
2022/03/05 12:00:46;;;;;;;21.17;13.05;;;;;;;;;;5092145;28;20422;-62
2022/03/05 12:03:22;;;;;;;22.95;13.52;;;13.50;99.90;;;;;;5094476;28;20044;-62
2022/03/05 12:05:48;;;;;;;22.23;13.80;;;;;;;;;;5094544;28;20452;-61
2022/03/05 12:08:26;;;;;;;22.48;14.32;;;13.50;99.90;;;;;;5092933;28;20093;-62
2022/03/05 12:11:14;;;;;;;21.23;13.25;;;;;;;;;;5094012;28;20040;-62
2022/03/05 12:13:44;;;;;;;22.08;12.70;;;;;;;;;;5094069;28;20044;-62
2022/03/05 12:16:23;;;;;;;22.20;13.50;;;13.80;99.90;;;;;;5094209;28;20044;-62
2022/03/05 12:18:49;;;;;;;23.85;14.32;;;;;;;;;;5093977;28;20040;-62
2022/03/05 12:21:26;;;;;;;21.70;13.80;;;;;;;;;;5093836;28;20042;-61
2022/03/05 12:24:05;;;;;;;24.90;14.57;;;13.70;99.90;;;;;;5094171;28;20543;-62
2022/03/05 12:26:35;;;;;;;22.38;13.40;;;;;;;;;;5093762;28;20063;-62
2022/03/05 12:29:03;;;;;;;23.05;14.13;;;;;;;;;;5092733;28;20490;-61
2022/03/05 12:31:29;;;;;;;22.00;15.07;;;;;;;;;;5093269;28;20055;-62
2022/03/05 12:33:55;;;;;;;22.88;14.60;;;;;;;;;;5091810;28;20075;-62
2022/03/05 12:36:22;;;;;;;24.70;15.35;;;;;;;;;;5093870;28;20043;-62
2022/03/05 12:39:00;;;;;;;24.77;14.93;;;14.40;99.90;;;;;;5093458;28;20054;-62
2022/03/05 12:41:27;;;;;;;23.63;13.82;;;;;;;;;;5091684;28;20048;-62
2022/03/05 12:43:54;;;;;;;21.75;13.60;;;;;;;;;;5093292;28;20028;-61
2022/03/05 12:46:20;;;;;;;23.58;14.63;;;;;;;;;;5091923;28;20039;-62
2022/03/05 12:48:46;;;;;;;20.83;13.75;;;;;;;;;;5093052;28;20085;-62
2022/03/05 12:51:12;;;;;;;25.10;14.93;;;;;;;;;;5093450;28;20039;-62
2022/03/05 12:53:39;;;;;;;24.77;14.82;;;14.60;99.90;;;;;;5093044;28;20051;-62
2022/03/05 12:56:05;;;;;;;22.77;14.18;;;;;;;;;;5093268;28;20082;-63
2022/03/05 12:58:33;;;;;;;23.85;14.63;;;;;;;;;;5093206;28;20036;-64
2022/03/05 13:01:05;;;;;;;23.83;14.77;;;15.30;99.70;;;;;;5093066;28;20578;-64
2022/03/05 13:03:31;;;;;;;22.23;14.23;;;;;;;;;;5093264;28;20114;-62
2022/03/05 13:05:58;;;;;;;23.85;13.90;;;;;;;;;;5093010;28;20538;-62
2022/03/05 13:08:27;;;;;;;22.25;13.73;;;;;;;;;;5093250;28;20094;-62
2022/03/05 13:11:02;;;;;;;21.52;13.95;;;;;;;;;;5092281;28;20410;-63
2022/03/05 13:13:32;;;;;;;22.27;14.25;;;;;;;;;;5092261;28;20032;-62
2022/03/05 13:15:59;;;;;;;23.65;14.15;;;17.00;97.70;;;;;;5092850;28;20580;-62
2022/03/05 13:18:25;;;;;;;21.38;13.40;;;18.00;96.40;;;;;;5093157;28;20505;-62
2022/03/05 13:20:52;;;;;;;24.35;14.23;;;;;;;;;;5092677;28;20059;-62
2022/03/05 13:23:19;;;;;;;20.58;13.88;;;17.40;95.80;;;;;;5091506;28;20036;-63
2022/03/05 13:25:49;;;;;;;25.00;14.35;;;16.90;95.70;;;;;;5092352;28;20127;-62
2022/03/05 13:28:20;;;;;;;22.25;13.40;;;16.80;95.60;;;;;;5092908;28;20341;-62
2022/03/05 13:30:58;;;;;;;21.33;14.13;;;17.20;95.80;;;;;;5092532;28;20044;-62
2022/03/05 13:33:34;;;;;;;23.05;14.68;;;;;;;;;;5092801;28;20043;-62
2022/03/05 13:36:32;;;;;;;23.25;14.00;;;19.10;94.70;;;;;;5092376;28;20044;-62
2022/03/05 13:39:13;;;;;;;26.38;15.00;;;20.20;93.10;;;;;;5009985;28;20050;-62
2022/03/05 13:41:42;;;;;;;24.70;15.30;;;;;;;;;;5010070;28;20046;-62
2022/03/05 13:44:17;;;;;;;24.75;15.07;;;20.60;92.20;;;;;;5002251;28;20393;-62
2022/03/05 13:46:45;;;;;;;24.83;15.77;;;;;;;;;;5010194;28;20042;-62
2022/03/05 13:49:16;;;;;;;24.90;15.15;;;20.90;90.80;;;;;;5009994;28;20045;-62
2022/03/05 13:51:45;;;;;;;22.60;15.18;;;;;;;;;;5010245;28;20037;-62
2022/03/05 13:54:10;;;;;;;24.52;14.82;;;;;;;;;;5009955;28;20037;-62
2022/03/05 13:56:42;;;;;;;22.65;15.18;;;21.60;87.50;;;;;;5009996;28;20069;-62
2022/03/05 13:59:08;;;;;;;22.37;15.47;;;;;;;;;;5009852;28;20050;-62
2022/03/05 14:01:37;;;;;;;23.38;15.10;;;22.80;86.50;;;;;;5009975;28;20034;-62
2022/03/05 14:04:20;;;;;;;23.15;15.00;;;22.70;85.00;;;;;;5009603;28;20057;-63
2022/03/05 14:06:46;;;;;;;24.50;15.32;;;;;;;;;;5009975;28;20042;-62
2022/03/05 14:09:39;;;;;;;24.13;15.55;;;22.10;83.30;;;;;;5009620;28;20053;-62
2022/03/05 14:12:05;;;;;;;23.08;15.35;;;;;;;;;;5007421;28;20177;-62
2022/03/05 14:14:39;;;;;;;21.55;15.27;;;;;;;;;;5009679;28;20053;-62
2022/03/05 14:17:06;;;;;;;22.23;15.00;;;;;;;;;;5088287;28;20517;-62
2022/03/05 14:19:33;;;;;;;23.42;15.77;;;;;;;;;;5090177;28;20056;-62